Gypsum, Kansas
Current Conditions -  °F | °C
As of 7:53 AM on Wednesday 26 Nov 2014 (Local Time) from KSLN Reporting Station
Clear Clear  
Wind Chill: 32°   Ceiling: Unl
Heat Index: 40°   Visibility: 10mi
Dew Point: 29°   Wind: 14mph
Humidity: 65%   Direction: 300°WNW
Pressure: 30.07"   Gusts: NA
Location:  38.71°N, 97.43°W
Report Text: KSLN 261353Z 30012KT 10SM CLR 04/M02 A3007 RMK AO2 SLP187 T00441017
Loading
Personal Weather Stations






























Interactive Weather Map New forecast layout! Learn more

10-Day Weather Forecast

Advertisements
Track Severe Weather on mobile